Drake Field
KFYV : now visible

Airfield :











YOU CAN JOIN US ON...

 
LOGIN :

Register | Disclaimer

   EN    FR    IT 

 









Legend :    VFR   Marginal VFR   IFR   Intensive IFR   Very Intensive IFR
Visi :
Ceiling :
>= 8 km
>= 3000ft
5 to 8 km
1000 to 3000 ft
1500m to 5 km
500 to 1000 ft
800 to 1500m
200 to 500 ft
< 800m
< 200 ft
Symbols :   Thunderstorms  Fog  Heavy snow  Heavy precipitations  Wind > 20 kt






- Airport Elevation : 1251 ft
- IATA code : FYV


KFYV - Drake Field

CURRENT METAR :
  • 061853Z 18019G26KT 10SM CLR 19/11 A2993 RMK AO2 PK WND 18036/1818 SLP133 T01890111

EXPIRED METARs :
  • 061753Z 18019G29KT 10SM CLR 18/11 A2996 RMK AO2 PK WND 20032/1730 SLP145 T01780106 10178 21011 58012
  • 061653Z 18014G25KT 10SM CLR 17/11 A2999 RMK AO2 PK WND 17028/1641 SLP153 T01670106

TAF KFYV
Valid from the 06 at 18:00 until the 07 at 18:00 UTC


061734Z 0618/0718 17015G25KT P6SM SCT018 BKN250
FM062000 19017G29KT P6SM BKN025
FM070000 19012G22KT P6SM SCT025 BKN035
FM070600 19011KT P6SM BKN025
PROB30 0707/0710 5SM -RA BKN015
FM071000 30008KT P6SM VCSH BKN015
FM071200 01010G16KT P6SM BKN015
KZME FIR / North America



MET'MAP, your aeronautical weather chart ! - Copyright ORBIFLY December 2007 - Disclaimer

ORBIFLY MET'MAP TEAM :

Programming & Development : Alexandra Zaïnal
Original concept : Baudouin d'Aumeries
Technical & hardware support : Manuel Goepfert
Assistance : Marc-Olivier Méhu




SOURCES & CREDITS :

   NOAA       Earth
Advisory